createdAt,value
2019-02-28T00:00:25.597Z,20.70
2019-02-28T00:05:19.414Z,23.00
2019-02-28T00:10:10.745Z,23.60
2019-02-28T00:15:02.383Z,18.80
2019-02-28T00:19:55.268Z,22.40
2019-02-28T00:24:49.681Z,20.30
2019-02-28T00:29:41.704Z,22.50
2019-02-28T00:34:36.268Z,29.90
2019-02-28T00:39:31.310Z,26.00
2019-02-28T00:44:30.301Z,20.90
2019-02-28T00:49:24.431Z,21.80
2019-02-28T07:42:12.935Z,39.80
2019-02-28T07:47:05.790Z,49.30
2019-02-28T07:51:58.216Z,46.80
2019-02-28T07:56:50.527Z,51.00
2019-02-28T08:01:42.982Z,38.50
2019-02-28T08:06:36.247Z,38.30
2019-02-28T08:11:31.043Z,46.50
2019-02-28T08:16:22.982Z,43.00
2019-02-28T08:21:15.311Z,52.20
2019-02-28T08:26:06.965Z,37.40
2019-02-28T08:30:58.127Z,42.20
2019-02-28T08:35:49.434Z,44.70
2019-02-28T08:40:41.065Z,41.50
2019-02-28T08:45:33.185Z,39.70
2019-02-28T08:50:25.267Z,47.00
2019-02-28T08:55:16.706Z,42.20
2019-02-28T09:00:12.865Z,36.50
2019-02-28T09:05:06.568Z,30.70
2019-02-28T09:09:57.297Z,36.60
2019-02-28T09:14:51.910Z,40.30
2019-02-28T09:19:46.218Z,43.10
2019-02-28T09:24:37.474Z,42.00
2019-02-28T09:29:28.998Z,49.10
2019-02-28T09:34:20.596Z,34.70
2019-02-28T09:39:12.161Z,38.60
2019-02-28T09:44:11.758Z,36.80
2019-02-28T09:49:02.884Z,35.10
2019-02-28T09:54:01.681Z,37.40
2019-02-28T09:58:53.003Z,31.10
2019-02-28T10:03:45.000Z,37.90
2019-02-28T10:08:36.608Z,36.60
2019-02-28T10:13:30.974Z,32.30
2019-02-28T10:18:22.986Z,33.90
2019-02-28T10:23:15.174Z,30.60
2019-02-28T10:28:11.428Z,33.60
2019-02-28T10:33:03.096Z,24.50
2019-02-28T10:37:57.689Z,34.00
2019-02-28T10:42:49.496Z,32.80
2019-02-28T10:47:41.304Z,30.30
2019-02-28T10:52:33.212Z,34.50
2019-02-28T10:57:24.981Z,31.00
2019-02-28T11:02:18.924Z,33.50
2019-02-28T11:07:10.916Z,29.20
2019-02-28T11:12:02.993Z,28.10
2019-02-28T11:16:58.834Z,33.00
2019-02-28T11:21:51.280Z,36.50
2019-02-28T11:26:44.703Z,35.10
2019-02-28T11:31:37.580Z,34.40
2019-02-28T11:36:30.431Z,39.20
2019-02-28T11:41:25.848Z,40.00
2019-02-28T11:46:18.300Z,32.20
2019-02-28T11:51:10.876Z,38.50
2019-02-28T11:56:08.374Z,34.80
2019-02-28T12:01:02.287Z,41.80
2019-02-28T12:05:54.513Z,41.40
2019-02-28T12:10:47.329Z,45.10
2019-02-28T12:15:39.713Z,42.40
2019-02-28T12:20:32.281Z,46.00
2019-02-28T12:25:24.406Z,49.00
2019-02-28T12:30:18.668Z,53.10
2019-02-28T12:35:15.944Z,46.20
2019-02-28T12:40:10.202Z,40.80
2019-02-28T12:45:02.431Z,40.90
2019-02-28T12:49:57.212Z,43.90
2019-02-28T12:54:48.999Z,47.00
2019-02-28T12:59:45.381Z,37.60
2019-02-28T13:04:39.846Z,35.10
2019-02-28T13:09:31.925Z,29.50
2019-02-28T13:14:24.346Z,36.20
2019-02-28T13:19:19.965Z,28.50
2019-02-28T13:24:11.777Z,35.40
2019-02-28T13:29:04.067Z,36.00
2019-02-28T13:33:56.113Z,31.40
2019-02-28T13:38:49.392Z,34.90
2019-02-28T13:43:45.573Z,41.80
2019-02-28T13:48:37.440Z,31.90
2019-02-28T13:53:30.471Z,45.30
2019-02-28T13:58:22.709Z,48.40
2019-02-28T14:03:17.071Z,38.80
2019-02-28T14:08:10.948Z,40.90
2019-02-28T14:13:02.772Z,44.40
2019-02-28T14:17:54.478Z,39.70
2019-02-28T14:22:46.631Z,41.40
2019-02-28T14:27:38.444Z,44.50
2019-02-28T14:32:30.717Z,36.30
2019-02-28T14:37:22.959Z,42.60
2019-02-28T14:42:16.850Z,42.80
2019-02-28T14:47:08.657Z,29.10
2019-02-28T14:52:03.528Z,34.70
2019-02-28T14:56:55.063Z,37.10
2019-02-28T15:01:49.457Z,39.60
2019-02-28T15:06:44.666Z,30.80
2019-02-28T15:11:38.493Z,24.80
2019-02-28T15:16:30.649Z,27.00
2019-02-28T15:21:22.737Z,13.90
2019-02-28T15:26:15.177Z,22.40
2019-02-28T15:31:08.574Z,22.50
2019-02-28T15:36:00.788Z,25.30
2019-02-28T15:40:55.631Z,23.80
2019-02-28T15:45:49.741Z,19.60
2019-02-28T15:50:41.986Z,16.80
2019-02-28T15:55:35.450Z,17.60
2019-02-28T16:00:28.597Z,14.20
2019-02-28T16:05:21.073Z,18.30
2019-02-28T16:10:13.200Z,16.10
2019-02-28T16:15:06.737Z,17.50
2019-02-28T16:20:02.823Z,18.90
2019-02-28T16:24:54.945Z,12.20
2019-02-28T16:29:47.036Z,11.30
2019-02-28T16:34:42.221Z,14.20
2019-02-28T16:39:34.124Z,12.00
2019-02-28T16:44:27.550Z,12.00
2019-02-28T16:49:21.938Z,11.40
2019-02-28T16:54:14.177Z,11.70
2019-02-28T16:59:06.233Z,9.30
2019-02-28T17:04:00.284Z,14.20
2019-02-28T17:08:54.488Z,8.20
2019-02-28T17:13:46.380Z,8.20
2019-02-28T17:18:38.687Z,11.00
2019-02-28T17:23:33.560Z,10.00
2019-02-28T17:28:28.038Z,9.80
2019-02-28T17:33:20.150Z,6.50
2019-02-28T17:38:12.374Z,12.00
2019-02-28T17:43:04.332Z,8.60
2019-02-28T17:47:56.411Z,9.50
2019-02-28T17:52:48.421Z,17.60
2019-02-28T17:57:41.684Z,12.20
2019-02-28T18:02:33.584Z,7.70
2019-02-28T18:07:28.644Z,8.10
2019-02-28T18:12:21.000Z,8.20
2019-02-28T18:17:15.423Z,10.30
2019-02-28T18:22:07.127Z,7.60
2019-02-28T18:26:59.370Z,12.70
2019-02-28T18:31:53.820Z,7.90
2019-02-28T18:36:48.360Z,9.20
2019-02-28T18:41:42.043Z,6.30
2019-02-28T18:46:34.576Z,6.30
2019-02-28T18:51:27.174Z,10.50
2019-02-28T18:56:19.036Z,6.60
2019-02-28T19:01:11.567Z,7.70
2019-02-28T19:06:03.450Z,9.40
2019-02-28T19:10:57.309Z,8.70
2019-02-28T19:15:48.980Z,9.20
2019-02-28T19:20:43.038Z,9.70
2019-02-28T19:25:34.737Z,6.30
2019-02-28T19:30:27.205Z,12.60
2019-02-28T19:35:19.139Z,7.20
2019-02-28T19:40:11.238Z,10.70
2019-02-28T19:45:03.473Z,5.70
2019-02-28T19:49:55.548Z,8.50
2019-02-28T19:54:47.431Z,6.70
2019-02-28T19:59:41.498Z,8.30
2019-02-28T20:04:32.798Z,6.50
2019-02-28T20:09:24.909Z,10.90
2019-02-28T20:14:17.209Z,9.10
2019-02-28T20:19:09.358Z,9.70
2019-02-28T20:24:01.528Z,6.70
2019-02-28T20:28:53.780Z,12.00
2019-02-28T20:33:46.055Z,7.20
2019-02-28T20:38:38.299Z,13.40
2019-02-28T20:43:30.396Z,10.70
2019-02-28T20:48:22.371Z,10.20
2019-02-28T20:53:14.587Z,7.60
2019-02-28T20:58:06.802Z,8.40
2019-02-28T21:02:58.937Z,9.60
2019-02-28T21:07:51.026Z,10.70
2019-02-28T21:12:42.950Z,10.40
2019-02-28T21:17:35.029Z,11.00
2019-02-28T21:22:26.920Z,10.20
2019-02-28T21:27:19.139Z,9.20
2019-02-28T21:32:11.098Z,7.20
2019-02-28T21:37:03.011Z,8.50
2019-02-28T21:41:54.864Z,6.90
2019-02-28T21:46:46.740Z,7.90
2019-02-28T21:51:38.589Z,9.80
2019-02-28T21:56:30.867Z,7.60
2019-02-28T22:01:22.648Z,14.40
2019-02-28T22:06:14.756Z,9.30
2019-02-28T22:11:06.767Z,12.40
2019-02-28T22:15:58.782Z,13.30
2019-02-28T22:20:50.594Z,11.50
2019-02-28T22:25:42.545Z,11.40
2019-02-28T22:30:34.702Z,13.10
2019-02-28T22:35:26.759Z,12.80
2019-02-28T22:40:18.946Z,18.80
2019-02-28T22:45:10.797Z,15.50
2019-02-28T22:50:02.636Z,17.00
2019-02-28T22:54:55.307Z,15.00
2019-02-28T22:59:47.347Z,15.30
2019-02-28T23:04:39.286Z,11.60
2019-02-28T23:09:31.370Z,14.90
2019-02-28T23:14:23.524Z,14.30
2019-02-28T23:19:15.742Z,12.70
2019-02-28T23:24:07.645Z,12.00
2019-02-28T23:28:59.772Z,12.10
2019-02-28T23:34:00.883Z,12.00
2019-02-28T23:38:51.550Z,8.70
2019-02-28T23:43:43.466Z,7.60
2019-02-28T23:48:36.080Z,7.90
2019-02-28T23:53:28.077Z,6.70
2019-02-28T23:58:20.211Z,9.50
